createdAt,value
2019-02-16T00:01:55.976Z,96057.34
2019-02-16T00:04:29.179Z,96062.38
2019-02-16T00:07:02.099Z,96054.33
2019-02-16T00:09:35.392Z,96059.52
2019-02-16T00:12:08.141Z,96061.66
2019-02-16T00:14:41.496Z,96052.94
2019-02-16T00:17:14.435Z,96061.35
2019-02-16T00:19:47.313Z,96057.03
2019-02-16T00:22:20.343Z,96058.19
2019-02-16T00:24:53.402Z,96057.41
2019-02-16T00:27:26.123Z,96062.94
2019-02-16T00:29:58.962Z,96059.56
2019-02-16T00:32:33.140Z,96051.84
2019-02-16T00:35:06.094Z,96046.83
2019-02-16T00:37:38.950Z,96053.31
2019-02-16T00:40:11.732Z,96046.22
2019-02-16T00:42:44.720Z,96044.96
2019-02-16T00:45:17.686Z,96037.54
2019-02-16T00:47:50.550Z,96039.64
2019-02-16T00:50:23.362Z,96037.71
2019-02-16T00:52:56.138Z,96040.16
2019-02-16T00:55:28.970Z,96033.38
2019-02-16T00:58:01.830Z,96035.48
2019-02-16T01:00:34.905Z,96029.87
2019-02-16T01:03:07.644Z,96032.45
2019-02-16T01:05:40.592Z,96029.40
2019-02-16T01:08:13.557Z,96034.11
2019-02-16T01:10:46.652Z,96027.16
2019-02-16T01:13:19.448Z,96020.71
2019-02-16T01:15:52.178Z,96023.80
2019-02-16T01:18:25.092Z,96021.00
2019-02-16T01:20:57.971Z,96021.81
2019-02-16T01:23:31.523Z,96018.60
2019-02-16T01:26:04.341Z,96026.73
2019-02-16T01:28:37.598Z,96023.78
2019-02-16T01:31:10.547Z,96022.61
2019-02-16T01:33:45.462Z,96019.38
2019-02-16T01:36:18.063Z,96019.39
2019-02-16T01:38:50.826Z,96021.16
2019-02-16T01:41:23.487Z,96014.51
2019-02-16T01:43:56.209Z,96010.31
2019-02-16T01:46:29.074Z,96009.84
2019-02-16T01:49:02.064Z,96008.68
2019-02-16T01:51:34.823Z,96006.09
2019-02-16T01:54:09.206Z,96005.27
2019-02-16T01:56:42.208Z,96008.68
2019-02-16T01:59:15.104Z,96005.13
2019-02-16T02:01:49.551Z,96014.19
2019-02-16T02:04:22.303Z,96005.59
2019-02-16T02:06:55.192Z,96012.40
2019-02-16T02:09:28.049Z,96012.70
2019-02-16T02:12:01.028Z,96017.37
2019-02-16T02:14:33.970Z,96014.13
2019-02-16T02:17:06.725Z,96012.67
2019-02-16T02:19:39.609Z,96011.89
2019-02-16T02:22:12.532Z,96005.59
2019-02-16T02:24:45.163Z,96012.23
2019-02-16T02:27:17.825Z,96009.63
2019-02-16T02:29:50.639Z,96009.79
2019-02-16T02:32:23.624Z,96005.28
2019-02-16T02:34:56.545Z,96013.38
2019-02-16T02:37:29.239Z,96012.88
2019-02-16T02:40:02.078Z,96012.73
2019-02-16T02:42:35.050Z,96013.40
2019-02-16T02:45:09.289Z,96010.97
2019-02-16T02:47:42.086Z,96009.84
2019-02-16T02:50:15.237Z,96012.59
2019-02-16T02:52:48.137Z,96010.77
2019-02-16T02:55:21.055Z,96013.71
2019-02-16T02:57:54.299Z,96014.37
2019-02-16T03:00:27.405Z,96013.23
2019-02-16T03:03:00.210Z,96011.80
2019-02-16T03:05:33.156Z,96016.13
2019-02-16T03:08:06.181Z,96016.00
2019-02-16T03:10:38.907Z,96014.21
2019-02-16T03:13:11.749Z,96023.41
2019-02-16T03:15:44.502Z,96020.80
2019-02-16T03:18:18.300Z,96021.28
2019-02-16T03:20:51.399Z,96025.98
2019-02-16T03:23:24.787Z,96025.01
2019-02-16T03:26:46.479Z,96029.37
2019-02-16T03:29:41.567Z,96020.63
2019-02-16T03:33:35.197Z,96025.34
2019-02-16T03:37:31.068Z,96020.74
2019-02-16T03:40:03.900Z,96005.73
2019-02-16T03:42:37.362Z,96006.70
2019-02-16T03:45:10.917Z,96002.33
2019-02-16T03:47:43.850Z,96000.86
2019-02-16T03:50:16.594Z,96001.00
2019-02-16T03:52:49.411Z,96001.48
2019-02-16T03:55:22.188Z,95996.95
2019-02-16T03:57:55.021Z,96004.36
2019-02-16T04:00:30.144Z,96005.33
2019-02-16T04:03:02.732Z,96000.47
2019-02-16T04:05:35.393Z,95999.98
2019-02-16T04:08:08.440Z,96001.73
2019-02-16T04:10:41.344Z,96004.50
2019-02-16T04:13:14.300Z,96001.36
2019-02-16T04:15:47.173Z,95996.69
2019-02-16T04:18:21.287Z,95995.69
2019-02-16T04:20:54.514Z,95991.48
2019-02-16T04:23:27.411Z,95991.78
2019-02-16T04:26:00.239Z,95984.16
2019-02-16T04:28:33.627Z,95986.23
2019-02-16T04:31:06.539Z,95993.90
2019-02-16T04:33:40.306Z,95987.06
2019-02-16T04:36:13.190Z,95984.87
2019-02-16T04:38:46.279Z,95989.05
2019-02-16T04:41:19.402Z,95991.84
2019-02-16T04:43:52.734Z,95995.83
2019-02-16T04:46:25.582Z,96003.55
2019-02-16T04:48:58.533Z,96003.88
2019-02-16T04:51:31.678Z,96009.78
2019-02-16T04:54:04.892Z,96011.53
2019-02-16T04:56:37.648Z,96014.87
2019-02-16T04:59:10.667Z,96016.50
2019-02-16T05:01:43.524Z,96028.77
2019-02-16T05:04:16.429Z,96027.25
2019-02-16T05:06:49.237Z,96030.69
2019-02-16T05:09:22.740Z,96034.62
2019-02-16T05:11:55.862Z,96035.23
2019-02-16T05:14:29.189Z,96035.41
2019-02-16T05:17:02.448Z,96036.58
2019-02-16T05:19:35.782Z,96036.23
2019-02-16T05:22:08.917Z,96044.46
2019-02-16T05:24:41.768Z,96041.25
2019-02-16T05:27:15.169Z,96047.92
2019-02-16T05:29:49.052Z,96049.26
2019-02-16T05:32:21.987Z,96052.61
2019-02-16T05:34:54.862Z,96052.73
2019-02-16T05:37:27.683Z,96052.89
2019-02-16T05:40:00.480Z,96053.42
2019-02-16T05:42:33.328Z,96054.86
2019-02-16T05:45:06.499Z,96052.69
2019-02-16T05:47:39.677Z,96044.87
2019-02-16T05:50:12.976Z,96050.03
2019-02-16T05:52:54.230Z,96054.01
2019-02-16T05:55:20.751Z,96053.50
2019-02-16T05:57:53.885Z,96058.03
2019-02-16T06:00:29.311Z,96063.77
2019-02-16T06:03:03.274Z,96066.14
2019-02-16T06:05:36.390Z,96063.48
2019-02-16T06:08:09.497Z,96059.66
2019-02-16T06:10:42.747Z,96049.97
2019-02-16T06:13:18.674Z,96053.85
2019-02-16T06:15:51.689Z,96046.06
2019-02-16T06:18:25.616Z,96046.73
2019-02-16T06:20:58.852Z,96051.91
2019-02-16T06:23:31.883Z,96048.98
2019-02-16T06:26:04.951Z,96048.66
2019-02-16T06:28:58.027Z,96054.50
2019-02-16T06:31:31.337Z,96048.61
2019-02-16T06:34:04.293Z,96049.84
2019-02-16T06:36:42.289Z,96048.42
2019-02-16T06:39:15.354Z,96049.50
2019-02-16T06:41:48.904Z,96059.39
2019-02-16T06:44:21.901Z,96052.52
2019-02-16T06:46:55.506Z,96054.31
2019-02-16T06:49:29.098Z,96060.77
2019-02-16T06:52:02.731Z,96059.44
2019-02-16T06:54:35.916Z,96052.83
2019-02-16T06:57:27.334Z,96057.94
2019-02-16T07:00:00.050Z,96067.02
2019-02-16T07:02:33.016Z,96063.58
2019-02-16T07:05:06.103Z,96068.27
2019-02-16T07:07:38.995Z,96059.03
2019-02-16T07:10:12.271Z,96058.01
2019-02-16T07:12:45.173Z,96061.20
2019-02-16T07:15:18.186Z,96056.25
2019-02-16T07:18:10.315Z,96057.48
2019-02-16T07:20:43.429Z,96063.21
2019-02-16T07:23:22.378Z,96062.61
2019-02-16T07:25:50.874Z,96059.41
2019-02-16T07:28:23.962Z,96061.14
2019-02-16T07:30:56.975Z,96066.25
2019-02-16T07:33:29.924Z,96066.63
2019-02-16T07:36:02.885Z,96068.87
2019-02-16T07:38:36.071Z,96069.22
2019-02-16T07:41:09.355Z,96070.56
2019-02-16T07:44:01.352Z,96072.11
2019-02-16T07:46:42.017Z,96078.20
2019-02-16T07:49:20.107Z,96084.84
2019-02-16T07:51:59.591Z,96076.33
2019-02-16T07:54:39.316Z,96072.27
2019-02-16T07:57:32.988Z,96065.06
2019-02-16T08:00:15.716Z,96067.22
2019-02-16T08:03:01.218Z,96055.98
2019-02-16T08:05:59.448Z,96053.13
2019-02-16T08:09:06.567Z,96049.78
2019-02-16T08:12:10.967Z,96041.52
2019-02-16T08:15:19.362Z,96036.04
2019-02-16T08:18:03.690Z,96037.00
2019-02-16T08:20:45.910Z,96035.22
2019-02-16T08:23:56.797Z,96029.78
2019-02-16T08:26:40.340Z,96025.41
2019-02-16T08:29:23.306Z,96024.52
2019-02-16T08:32:15.246Z,96025.51
2019-02-16T08:34:56.946Z,96023.29
2019-02-16T08:37:48.758Z,96020.58
2019-02-16T08:40:40.676Z,96023.78
2019-02-16T08:43:24.107Z,96015.70
2019-02-16T08:46:14.921Z,96025.30
2019-02-16T08:49:07.948Z,96024.95
2019-02-16T08:52:02.845Z,96024.70
2019-02-16T08:54:54.445Z,96018.84
2019-02-16T08:57:45.379Z,96010.76
2019-02-16T09:00:36.270Z,96015.52
2019-02-16T09:03:35.945Z,96014.33
2019-02-16T09:06:24.490Z,96009.46
2019-02-16T09:09:15.179Z,96007.24
2019-02-16T09:12:16.253Z,96001.92
2019-02-16T09:14:55.472Z,96001.05
2019-02-16T09:17:36.640Z,96004.97
2019-02-16T09:20:27.637Z,96004.11
2019-02-16T09:23:11.981Z,95998.98
2019-02-16T09:26:16.103Z,96001.14
2019-02-16T09:29:02.894Z,95993.92
2019-02-16T09:32:03.905Z,96001.28
2019-02-16T09:34:54.019Z,95996.35
2019-02-16T09:37:50.532Z,95995.89
2019-02-16T09:40:42.567Z,95993.81
2019-02-16T09:43:34.686Z,95995.02
2019-02-16T09:46:26.686Z,95994.81
2019-02-16T09:49:21.578Z,95984.37
2019-02-16T09:52:03.487Z,95989.05
2019-02-16T09:55:01.536Z,95979.81
2019-02-16T09:57:52.150Z,95973.44
2019-02-16T10:00:47.788Z,95975.74
2019-02-16T10:03:31.434Z,95967.66
2019-02-16T10:06:32.087Z,95968.98
2019-02-16T10:09:12.152Z,95955.86
2019-02-16T10:12:04.083Z,95957.97
2019-02-16T10:14:54.674Z,95957.59
2019-02-16T10:17:42.221Z,95955.61
2019-02-16T10:20:25.982Z,95954.41
2019-02-16T10:23:14.277Z,95945.52
2019-02-16T10:26:03.319Z,95942.27
2019-02-16T10:28:58.019Z,95939.86
2019-02-16T10:31:39.385Z,95946.18
2019-02-16T10:34:49.633Z,95948.95
2019-02-16T10:37:44.879Z,95946.67
2019-02-16T10:40:30.595Z,95940.32
2019-02-16T10:43:37.862Z,95940.27
2019-02-16T10:46:29.599Z,95936.02
2019-02-16T10:49:21.611Z,95935.88
2019-02-16T10:52:12.413Z,95928.78
2019-02-16T10:55:03.098Z,95921.08
2019-02-16T10:57:58.828Z,95919.16
2019-02-16T11:00:51.960Z,95910.65
2019-02-16T11:03:42.144Z,95909.95
2019-02-16T11:06:34.165Z,95905.73
2019-02-16T11:09:13.738Z,95894.90
2019-02-16T11:12:04.404Z,95895.77
2019-02-16T11:15:02.390Z,95890.37
2019-02-16T11:17:50.838Z,95892.13
2019-02-16T11:20:54.849Z,95886.92
2019-02-16T11:23:45.556Z,95877.87
2019-02-16T11:26:40.115Z,95878.53
2019-02-16T11:29:42.147Z,95881.12
2019-02-16T11:32:32.624Z,95870.31
2019-02-16T11:35:22.643Z,95867.66
2019-02-16T11:38:20.547Z,95863.48
2019-02-16T11:41:06.116Z,95863.06
2019-02-16T11:43:57.847Z,95855.52
2019-02-16T11:46:53.643Z,95854.05
2019-02-16T11:50:03.817Z,95854.98
2019-02-16T11:52:59.285Z,95848.73
2019-02-16T11:55:49.886Z,95854.15
2019-02-16T11:58:40.383Z,95849.98
2019-02-16T12:01:31.851Z,95849.47
2019-02-16T12:04:26.455Z,95843.34
2019-02-16T12:07:19.625Z,95842.29
2019-02-16T12:10:12.647Z,95841.02
2019-02-16T12:13:04.770Z,95833.30
2019-02-16T12:15:55.609Z,95838.11
2019-02-16T12:18:47.606Z,95830.02
2019-02-16T12:21:58.500Z,95834.32
2019-02-16T12:24:36.984Z,95829.21
2019-02-16T12:27:37.681Z,95828.81
2019-02-16T12:30:29.133Z,95832.59
2019-02-16T12:33:27.158Z,95830.98
2019-02-16T12:36:22.164Z,95826.77
2019-02-16T12:39:26.245Z,95820.93
2019-02-16T12:42:18.685Z,95815.49
2019-02-16T12:45:21.389Z,95817.13
2019-02-16T12:48:13.690Z,95816.22
2019-02-16T12:50:55.451Z,95808.05
2019-02-16T12:53:46.372Z,95802.62
2019-02-16T12:56:31.864Z,95801.70
2019-02-16T12:59:35.950Z,95796.85
2019-02-16T13:02:31.963Z,95796.66
2019-02-16T13:05:29.810Z,95795.98
2019-02-16T13:08:13.215Z,95795.86
2019-02-16T13:11:03.422Z,95788.44
2019-02-16T13:13:47.867Z,95791.84
2019-02-16T13:16:42.699Z,95783.92
2019-02-16T13:19:37.462Z,95783.82
2019-02-16T13:22:38.592Z,95785.66
2019-02-16T13:25:27.047Z,95789.34
2019-02-16T13:28:23.284Z,95785.47
2019-02-16T13:31:18.738Z,95788.05
2019-02-16T13:34:05.573Z,95781.58
2019-02-16T13:36:57.798Z,95796.27
2019-02-16T13:39:41.037Z,95779.52
2019-02-16T13:42:28.649Z,95786.44
2019-02-16T13:45:24.745Z,95775.20
2019-02-16T13:48:28.763Z,95778.00
2019-02-16T13:51:18.522Z,95775.95
2019-02-16T13:54:09.204Z,95777.52
2019-02-16T13:57:07.259Z,95771.91
2019-02-16T13:59:57.962Z,95765.48
2019-02-16T14:02:58.580Z,95767.09
2019-02-16T14:05:50.286Z,95764.27
2019-02-16T14:08:57.430Z,95772.34
2019-02-16T14:11:57.464Z,95770.61
2019-02-16T14:14:53.262Z,95768.71
2019-02-16T14:17:37.955Z,95768.88
2019-02-16T14:20:11.753Z,95772.81
2019-02-16T14:22:44.609Z,95777.20
2019-02-16T14:25:42.780Z,95772.58
2019-02-16T14:28:12.179Z,95769.38
2019-02-16T14:30:45.756Z,95768.73
2019-02-16T14:33:20.465Z,95770.00
2019-02-16T14:35:53.762Z,95762.76
2019-02-16T14:38:50.721Z,95763.66
2019-02-16T14:41:24.127Z,95767.01
2019-02-16T14:43:57.071Z,95765.13
2019-02-16T14:46:30.055Z,95757.59
2019-02-16T14:49:03.203Z,95757.06
2019-02-16T14:51:36.632Z,95751.70
2019-02-16T14:54:09.953Z,95755.92
2019-02-16T14:56:43.955Z,95754.23
2019-02-16T14:59:17.243Z,95758.61
2019-02-16T15:01:50.403Z,95750.39
2019-02-16T15:04:24.311Z,95755.94
2019-02-16T15:06:57.560Z,95753.94
2019-02-16T15:09:31.031Z,95755.94
2019-02-16T15:12:04.647Z,95757.11
2019-02-16T15:14:38.513Z,95755.59
2019-02-16T15:17:11.833Z,95755.68
2019-02-16T15:19:45.673Z,95755.00
2019-02-16T15:22:18.857Z,95753.22
2019-02-16T15:24:52.263Z,95751.32
2019-02-16T15:27:25.843Z,95756.83
2019-02-16T15:29:59.259Z,95759.58
2019-02-16T15:32:35.268Z,95761.11
2019-02-16T15:35:09.178Z,95762.77
2019-02-16T15:37:49.410Z,95762.70
2019-02-16T15:40:28.341Z,95765.51
2019-02-16T15:43:09.313Z,95769.45
2019-02-16T15:45:52.493Z,95772.64
2019-02-16T15:48:33.372Z,95766.23
2019-02-16T15:51:13.542Z,95768.14
2019-02-16T15:53:51.566Z,95772.39
2019-02-16T15:56:27.734Z,95779.02
2019-02-16T15:59:09.709Z,95782.73
2019-02-16T16:01:48.672Z,95783.44
2019-02-16T16:04:28.317Z,95787.12
2019-02-16T16:07:08.890Z,95789.70
2019-02-16T16:09:59.761Z,95789.22
2019-02-16T16:13:03.402Z,95789.34
2019-02-16T16:15:56.880Z,95798.91
2019-02-16T16:18:49.884Z,95809.64
2019-02-16T16:21:53.836Z,95812.95
2019-02-16T16:24:57.271Z,95815.16
2019-02-16T16:27:50.524Z,95817.77
2019-02-16T16:30:54.594Z,95820.41
2019-02-16T16:33:50.195Z,95822.81
2019-02-16T16:36:52.372Z,95828.16
2019-02-16T16:39:53.432Z,95835.25
2019-02-16T16:42:53.199Z,95835.89
2019-02-16T16:46:01.930Z,95837.30
2019-02-16T16:49:09.082Z,95833.80
2019-02-16T16:52:10.432Z,95843.49
2019-02-16T16:55:26.662Z,95843.24
2019-02-16T16:58:25.926Z,95849.00
2019-02-16T17:01:26.251Z,95858.84
2019-02-16T17:04:30.933Z,95854.87
2019-02-16T17:07:39.642Z,95857.86
2019-02-16T17:10:42.461Z,95864.10
2019-02-16T17:13:34.839Z,95872.67
2019-02-16T17:16:28.579Z,95864.95
2019-02-16T17:19:19.146Z,95865.48
2019-02-16T17:22:21.600Z,95867.81
2019-02-16T17:25:29.394Z,95868.94
2019-02-16T17:28:39.893Z,95870.13
2019-02-16T17:31:41.723Z,95871.82
2019-02-16T17:34:32.595Z,95865.69
2019-02-16T17:37:39.285Z,95869.45
2019-02-16T17:40:26.784Z,95874.40
2019-02-16T17:43:29.001Z,95875.42
2019-02-16T17:46:24.894Z,95866.85
2019-02-16T17:49:36.380Z,95869.98
2019-02-16T17:52:39.413Z,95865.48
2019-02-16T17:55:48.489Z,95877.66
2019-02-16T17:58:31.782Z,95865.83
2019-02-16T18:01:27.941Z,95874.45
2019-02-16T18:04:25.306Z,95876.25
2019-02-16T18:07:27.446Z,95871.74
2019-02-16T18:10:29.563Z,95875.33
2019-02-16T18:13:30.451Z,95878.73
2019-02-16T18:16:25.854Z,95885.27
2019-02-16T18:19:12.952Z,95885.61
2019-02-16T18:22:06.159Z,95888.36
2019-02-16T18:25:26.569Z,95888.53
2019-02-16T18:28:26.750Z,95890.83
2019-02-16T18:31:33.058Z,95896.84
2019-02-16T18:34:34.830Z,95901.59
2019-02-16T18:37:28.390Z,95896.58
2019-02-16T18:40:28.596Z,95897.27
2019-02-16T18:43:19.970Z,95888.84
2019-02-16T18:46:15.066Z,95903.59
2019-02-16T18:49:18.511Z,95899.12
2019-02-16T18:52:12.677Z,95896.65
2019-02-16T18:55:11.851Z,95901.22
2019-02-16T18:58:17.597Z,95893.77
2019-02-16T19:01:16.069Z,95897.97
2019-02-16T19:04:13.883Z,95901.86
2019-02-16T19:07:10.836Z,95903.19
2019-02-16T19:10:13.173Z,95904.98
2019-02-16T19:13:08.429Z,95908.87
2019-02-16T19:16:13.289Z,95903.52
2019-02-16T19:19:08.990Z,95903.91
2019-02-16T19:22:10.241Z,95904.27
2019-02-16T19:25:01.629Z,95912.57
2019-02-16T19:28:04.950Z,95907.06
2019-02-16T19:31:03.196Z,95914.70
2019-02-16T19:33:55.243Z,95911.98
2019-02-16T19:36:50.535Z,95913.77
2019-02-16T19:39:45.911Z,95915.39
2019-02-16T19:42:34.042Z,95917.19
2019-02-16T19:45:25.648Z,95915.56
2019-02-16T19:48:17.298Z,95926.41
2019-02-16T19:51:13.678Z,95919.80
2019-02-16T19:54:16.366Z,95926.90
2019-02-16T19:56:57.739Z,95927.09
2019-02-16T19:59:52.572Z,95927.24
2019-02-16T20:02:45.667Z,95923.50
2019-02-16T20:05:41.487Z,95929.49
2019-02-16T20:08:37.578Z,95930.95
2019-02-16T20:11:33.721Z,95925.12
2019-02-16T20:14:29.841Z,95922.06
2019-02-16T20:17:22.428Z,95923.84
2019-02-16T20:20:17.791Z,95923.01
2019-02-16T20:23:20.507Z,95927.39
2019-02-16T20:26:04.752Z,95923.35
2019-02-16T20:29:01.394Z,95918.82
2019-02-16T20:31:49.368Z,95919.80
2019-02-16T20:34:50.438Z,95914.27
2019-02-16T20:37:44.216Z,95918.34
2019-02-16T20:40:35.745Z,95921.23
2019-02-16T20:43:24.108Z,95921.24
2019-02-16T20:46:13.537Z,95926.73
2019-02-16T20:49:09.554Z,95928.52
2019-02-16T20:52:01.479Z,95926.42
2019-02-16T20:54:41.730Z,95931.11
2019-02-16T20:57:47.063Z,95932.92
2019-02-16T21:00:34.404Z,95928.86
2019-02-16T21:03:20.667Z,95931.45
2019-02-16T21:06:12.387Z,95931.77
2019-02-16T21:09:23.266Z,95926.94
2019-02-16T21:12:24.554Z,95929.99
2019-02-16T21:15:16.110Z,95926.42
2019-02-16T21:18:07.499Z,95922.52
2019-02-16T21:20:59.599Z,95917.50
2019-02-16T21:24:01.155Z,95924.91
2019-02-16T21:26:56.352Z,95928.16
2019-02-16T21:29:47.636Z,95931.08
2019-02-16T21:32:42.943Z,95923.66
2019-02-16T21:35:53.584Z,95922.06
2019-02-16T21:39:03.016Z,95930.95
2019-02-16T21:41:50.532Z,95920.30
2019-02-16T21:44:44.121Z,95927.39
2019-02-16T21:47:29.069Z,95929.84
2019-02-16T21:50:26.811Z,95924.02
2019-02-16T21:53:21.374Z,95925.30
2019-02-16T21:56:11.134Z,95923.03
2019-02-16T21:59:07.791Z,95921.09
2019-02-16T22:02:02.776Z,95921.59
2019-02-16T22:04:57.961Z,95921.39
2019-02-16T22:07:50.396Z,95918.19
2019-02-16T22:10:45.500Z,95920.27
2019-02-16T22:13:19.221Z,95918.84
2019-02-16T22:15:52.497Z,95915.92
2019-02-16T22:18:25.776Z,95917.37
2019-02-16T22:20:58.930Z,95917.23
2019-02-16T22:23:32.659Z,95920.93
2019-02-16T22:26:06.045Z,95915.27
2019-02-16T22:28:39.412Z,95911.38
2019-02-16T22:31:12.520Z,95913.64
2019-02-16T22:33:45.660Z,95909.91
2019-02-16T22:36:19.079Z,95908.63
2019-02-16T22:38:52.625Z,95905.08
2019-02-16T22:41:25.555Z,95913.16
2019-02-16T22:43:58.523Z,95909.94
2019-02-16T22:46:31.924Z,95906.20
2019-02-16T22:49:04.875Z,95903.78
2019-02-16T22:51:37.930Z,95900.06
2019-02-16T22:54:11.116Z,95902.33
2019-02-16T22:56:44.310Z,95897.16
2019-02-16T22:59:17.416Z,95899.89
2019-02-16T23:01:50.516Z,95906.05
2019-02-16T23:04:23.711Z,95898.61
2019-02-16T23:06:56.734Z,95893.74
2019-02-16T23:09:30.193Z,95899.73
2019-02-16T23:12:03.239Z,95896.67
2019-02-16T23:14:36.601Z,95899.72
2019-02-16T23:17:09.712Z,95896.66
2019-02-16T23:19:43.052Z,95901.53
2019-02-16T23:22:16.211Z,95893.27
2019-02-16T23:24:49.268Z,95889.86
2019-02-16T23:27:22.386Z,95895.53
2019-02-16T23:29:55.588Z,95895.68
2019-02-16T23:32:28.674Z,95897.00
2019-02-16T23:35:02.435Z,95898.92
2019-02-16T23:37:35.360Z,95893.75
2019-02-16T23:40:09.423Z,95893.09
2019-02-16T23:42:42.355Z,95890.86
2019-02-16T23:45:15.428Z,95892.31
2019-02-16T23:47:48.518Z,95896.03
2019-02-16T23:50:23.020Z,95891.34
2019-02-16T23:52:56.134Z,95891.02
2019-02-16T23:55:29.026Z,95894.09
2019-02-16T23:58:01.996Z,95892.46
